Time;durP1;ratioP1;P1;durP2;ratioP2;P2;SDS_P1;SDS_P2;PMS_P1;PMS_P2;Temp;Humidity;BMP_temperature;BMP_pressure;BME280_temperature;BME280_humidity;BME280_pressure;Samples;Min_cycle;Max_cycle;Signal;HPM_P1;HPM_P2
2023/10/22 00:01:14;;;;;;;6.60;3.97;;;9.90;99.90;;;;;;4797633;29;20043;-76
2023/10/22 00:04:03;;;;;;;6.47;4.18;;;9.90;99.90;;;;;;4797710;30;20404;-76
2023/10/22 00:06:49;;;;;;;7.30;4.90;;;9.80;99.90;;;;;;4797370;30;20414;-77
2023/10/22 00:09:14;;;;;;;6.35;4.70;;;9.80;99.90;;;;;;4782615;30;20031;-77
2023/10/22 00:11:43;;;;;;;9.45;5.10;;;9.70;99.90;;;;;;4787190;30;20097;-78
2023/10/22 00:14:08;;;;;;;;;;;9.70;99.90;;;;;;4779901;30;20043;-78
2023/10/22 00:16:49;;;;;;;7.30;4.63;;;9.70;99.90;;;;;;4779290;30;19977;-78
2023/10/22 00:19:24;;;;;;;6.47;4.30;;;9.70;99.90;;;;;;4764512;30;20112;-77
2023/10/22 00:24:54;;;;;;;6.82;4.22;;;9.70;99.90;;;;;;4718395;30;20038;-79
2023/10/22 00:28:13;;;;;;;7.32;3.40;;;9.70;99.90;;;;;;4710919;30;20264;-79
2023/10/22 06:53:53;;;;;;;2.65;0.77;;;10.90;99.90;;;;;;4887208;29;20059;-76
2023/10/22 06:56:18;;;;;;;3.38;0.70;;;11.00;99.90;;;;;;4887845;29;20056;-75
2023/10/22 06:58:45;;;;;;;5.88;1.42;;;11.10;99.90;;;;;;4872929;29;20045;-75
2023/10/22 07:01:12;;;;;;;2.83;0.90;;;11.10;99.90;;;;;;4855684;29;20308;-76
2023/10/22 07:03:46;;;;;;;5.80;1.30;;;11.00;99.90;;;;;;4872154;29;20107;-77
2023/10/22 07:06:12;;;;;;;2.63;0.60;;;11.10;99.90;;;;;;4856239;29;20029;-74
2023/10/22 07:08:38;;;;;;;3.17;0.90;;;11.20;99.90;;;;;;4872251;29;20021;-75
2023/10/22 07:11:04;;;;;;;2.20;0.60;;;11.30;99.90;;;;;;4887538;29;20040;-75
2023/10/22 07:13:32;;;;;;;3.83;0.93;;;11.40;99.90;;;;;;4888551;29;20044;-75
2023/10/22 07:16:07;;;;;;;5.35;0.80;;;11.60;99.90;;;;;;4888218;29;20029;-75
2023/10/22 07:18:33;;;;;;;4.55;0.85;;;11.80;99.90;;;;;;4888059;29;20051;-75
2023/10/22 07:21:09;;;;;;;3.95;0.55;;;11.90;99.90;;;;;;4856551;29;20310;-76
2023/10/22 07:23:41;;;;;;;2.83;0.70;;;12.00;99.90;;;;;;4868506;29;20104;-77
2023/10/22 07:26:15;;;;;;;5.93;1.02;;;12.20;99.90;;;;;;4859922;29;20059;-76
2023/10/22 07:28:42;;;;;;;2.40;0.50;;;12.30;99.90;;;;;;4870347;29;20052;-77
2023/10/22 07:31:12;;;;;;;3.17;0.52;;;12.30;99.90;;;;;;4868449;29;20268;-78
2023/10/22 07:33:38;;;;;;;2.33;0.45;;;12.40;99.90;;;;;;4870611;29;20056;-75
2023/10/22 07:36:09;;;;;;;2.63;0.60;;;12.40;99.90;;;;;;4838956;29;20025;-77
2023/10/22 07:38:53;;;;;;;3.50;0.52;;;12.50;99.90;;;;;;4853481;29;20056;-81
2023/10/22 07:41:31;;;;;;;8.38;0.98;;;12.60;99.90;;;;;;4859919;29;20031;-80
2023/10/22 07:44:19;;;;;;;3.95;0.68;;;12.60;99.90;;;;;;4872679;29;20194;-77
2023/10/22 07:46:43;;;;;;;4.10;0.85;;;12.60;99.90;;;;;;4865247;29;20116;-78
2023/10/22 07:52:32;;;;;;;5.18;0.70;;;12.80;99.90;;;;;;4888190;29;20049;-77
2023/10/22 07:55:29;;;;;;;;;;;;;;;;;;;;;
2023/10/22 07:58:24;;;;;;;3.28;0.80;;;12.80;99.90;;;;;;4886598;29;20097;-79
2023/10/22 08:01:29;;;;;;;;;;;;;;;;;;;;;
2023/10/22 08:12:02;;;;;;;5.82;0.98;;;13.20;98.80;;;;;;4890547;29;20390;-78
2023/10/22 08:14:34;;;;;;;2.80;0.70;;;13.20;98.50;;;;;;4873586;29;20117;-79
2023/10/22 08:17:47;;;;;;;3.03;0.60;;;13.30;98.40;;;;;;4859509;29;20028;-79
2023/10/22 08:20:22;;;;;;;5.85;0.60;;;13.40;97.80;;;;;;4802660;29;20030;-81
2023/10/22 08:23:20;;;;;;;3.72;0.60;;;13.50;97.80;;;;;;4819747;29;20320;-79
2023/10/22 08:25:55;;;;;;;4.45;0.60;;;13.50;97.50;;;;;;4818999;29;20252;-80
2023/10/22 08:29:11;;;;;;;3.17;0.85;;;13.60;97.60;;;;;;4803485;29;20045;-81
2023/10/22 08:31:37;;;;;;;2.90;0.52;;;13.60;97.40;;;;;;4788057;29;20045;-75
2023/10/22 08:34:14;;;;;;;4.50;0.70;;;13.70;97.10;;;;;;4801051;29;20030;-79
2023/10/22 08:37:09;;;;;;;3.38;0.60;;;13.70;96.90;;;;;;4788171;29;20023;-77
2023/10/22 08:40:06;;;;;;;3.72;0.55;;;13.80;97.00;;;;;;4728109;30;20083;-77
2023/10/22 08:43:14;;;;;;;3.38;0.63;;;13.90;96.40;;;;;;4715153;30;20037;-78
2023/10/22 08:49:21;;;;;;;4.40;0.55;;;14.10;95.90;;;;;;4812121;29;20039;-79
2023/10/22 08:51:50;;;;;;;2.05;0.50;;;14.30;96.00;;;;;;4849832;29;20057;-79
2023/10/22 08:54:56;;;;;;;3.33;0.50;;;14.30;95.70;;;;;;4860622;29;20029;-78
2023/10/22 08:57:27;;;;;;;4.63;0.80;;;14.40;95.20;;;;;;4874441;29;20102;-78
2023/10/22 08:59:54;;;;;;;2.92;0.60;;;14.40;95.20;;;;;;4858957;29;20108;-79
2023/10/22 09:02:32;;;;;;;2.88;0.80;;;14.50;94.70;;;;;;4873508;29;20306;-78
2023/10/22 09:05:01;;;;;;;3.92;0.70;;;14.60;94.90;;;;;;4857664;29;20088;-78
2023/10/22 09:07:59;;;;;;;4.15;0.60;;;14.70;94.60;;;;;;4871067;29;20041;-79
2023/10/22 09:18:47;;;;;;;3.05;0.47;;;14.80;94.00;;;;;;4796680;30;20102;-79
2023/10/22 09:21:19;;;;;;;5.40;0.93;;;14.80;93.40;;;;;;4783616;29;20320;-81
2023/10/22 09:24:42;;;;;;;2.83;0.65;;;14.80;93.10;;;;;;4761130;30;20054;-78
2023/10/22 09:27:33;;;;;;;3.05;0.30;;;14.90;93.10;;;;;;4746232;30;20050;-79
2023/10/22 09:30:13;;;;;;;3.50;0.40;;;15.00;92.90;;;;;;4747036;30;20044;-80
2023/10/22 09:32:58;;;;;;;3.85;0.65;;;15.00;92.70;;;;;;4710756;30;20056;-78
2023/10/22 09:35:26;;;;;;;5.15;0.70;;;15.10;92.70;;;;;;4718825;30;20068;-78
2023/10/22 09:38:00;;;;;;;7.75;0.73;;;15.20;92.30;;;;;;4743281;30;20287;-78
2023/10/22 09:41:07;;;;;;;2.85;0.60;;;15.20;91.90;;;;;;4742815;30;20323;-77
2023/10/22 09:43:36;;;;;;;4.32;0.75;;;15.20;92.00;;;;;;4707302;30;20037;-79
2023/10/22 09:46:51;;;;;;;4.10;0.68;;;15.30;92.20;;;;;;4708182;30;20104;-79
2023/10/22 09:49:48;;;;;;;4.75;0.75;;;15.30;92.00;;;;;;4718135;30;20044;-80
2023/10/22 09:53:04;;;;;;;4.57;0.80;;;15.50;92.00;;;;;;4704469;30;20155;-81
2023/10/22 09:56:19;;;;;;;3.80;0.60;;;15.60;91.70;;;;;;4707686;30;20037;-81
2023/10/22 10:03:15;;;;;;;4.45;0.55;;;15.70;91.00;;;;;;4740393;30;20032;-81
2023/10/22 10:05:59;;;;;;;5.22;0.82;;;15.80;90.90;;;;;;4742474;30;20044;-79
2023/10/22 10:08:49;;;;;;;8.63;0.90;;;15.90;90.80;;;;;;4713089;30;20033;-80
2023/10/22 10:11:15;;;;;;;4.32;0.85;;;16.00;90.20;;;;;;4742037;30;20052;-79
2023/10/22 10:13:46;;;;;;;3.58;0.77;;;16.20;90.50;;;;;;4742712;30;20064;-79
2023/10/22 10:16:42;;;;;;;5.43;0.82;;;16.50;89.20;;;;;;4728421;30;20342;-79
2023/10/22 10:19:49;;;;;;;3.95;1.42;;;16.80;89.20;;;;;;4763480;29;20242;-78
2023/10/22 10:22:41;;;;;;;3.95;0.90;;;17.10;86.70;;;;;;4819364;29;20109;-80
2023/10/22 10:25:36;;;;;;;4.68;0.80;;;17.50;85.70;;;;;;4849517;29;20044;-79
2023/10/22 10:28:50;;;;;;;7.03;0.70;;;17.50;85.00;;;;;;4854257;29;20113;-79
2023/10/22 10:31:45;;;;;;;;;;;;;;;;;;;;;
2023/10/22 10:34:49;;;;;;;6.85;1.70;;;17.50;84.40;;;;;;4851490;29;20036;-80
2023/10/22 10:37:20;;;;;;;5.82;0.80;;;17.40;84.60;;;;;;4853778;29;20041;-79
2023/10/22 10:39:48;;;;;;;5.78;0.88;;;17.10;84.80;;;;;;4835659;29;20188;-79
2023/10/22 10:46:24;;;;;;;3.58;0.68;;;17.40;85.10;;;;;;4870370;29;20233;-79
2023/10/22 10:49:59;;;;;;;5.22;0.70;;;17.50;83.20;;;;;;4856629;29;20057;-79
2023/10/22 10:52:25;;;;;;;6.80;0.80;;;17.30;84.00;;;;;;4819722;29;20288;-80
2023/10/22 10:55:15;;;;;;;2.97;0.60;;;17.00;83.30;;;;;;4831749;29;20228;-78
2023/10/22 10:57:50;;;;;;;6.07;1.17;;;16.80;84.10;;;;;;4801241;29;20030;-79
2023/10/22 11:00:22;;;;;;;6.20;1.00;;;17.00;84.10;;;;;;4831448;29;20045;-79
2023/10/22 11:02:52;;;;;;;4.95;0.50;;;17.10;83.30;;;;;;4815734;29;20044;-79
2023/10/22 11:05:30;;;;;;;3.65;0.70;;;17.00;82.40;;;;;;4800467;29;20031;-79
2023/10/22 11:11:37;;;;;;;5.80;0.68;;;17.00;83.10;;;;;;4816024;29;20207;-79
2023/10/22 11:14:46;;;;;;;4.25;0.70;;;17.70;81.60;;;;;;4816245;29;20038;-79
2023/10/22 11:17:35;;;;;;;4.88;0.80;;;18.80;78.10;;;;;;4796029;29;20038;-78
2023/10/22 11:27:40;;;;;;;3.08;0.90;;;23.40;66.50;;;;;;4846748;29;20243;-79
2023/10/22 11:34:24;;;;;;;3.35;0.60;;;24.60;62.60;;;;;;4850993;29;20226;-79
2023/10/22 11:36:59;;;;;;;2.67;0.50;;;23.60;60.70;;;;;;4838198;29;20034;-77
2023/10/22 11:39:44;;;;;;;5.32;0.70;;;22.70;62.10;;;;;;4857805;29;20228;-78
2023/10/22 11:48:49;;;;;;;;;;;21.10;65.90;;;;;;4847623;29;19908;-77
2023/10/22 11:51:23;;;;;;;;;;;20.80;66.50;;;;;;4855052;29;20036;-77
2023/10/22 11:56:52;;;;;;;;;;;19.70;66.90;;;;;;4886294;29;19948;-79
2023/10/22 11:59:27;;;;;;;;;;;19.30;67.80;;;;;;4875722;29;19919;-78
2023/10/22 12:02:08;;;;;;;;;;;19.60;67.50;;;;;;4874462;29;19916;-76
2023/10/22 12:11:32;;;;;;;;;;;22.60;60.50;;;;;;4762431;30;19936;-77
2023/10/22 12:14:29;;;;;;;;;;;21.20;62.80;;;;;;4762767;30;19941;-77
2023/10/22 12:17:15;;;;;;;;;;;20.60;64.50;;;;;;4762428;30;19910;-76
2023/10/22 12:23:11;;;;;;;;;;;21.40;64.70;;;;;;4780160;30;19921;-78
2023/10/22 12:32:37;;;;;;;;;;;22.40;60.90;;;;;;4795478;30;19916;-76
2023/10/22 12:35:08;;;;;;;;;;;21.60;62.00;;;;;;4797873;30;19917;-76
2023/10/22 12:40:40;;;;;;;;;;;21.10;64.50;;;;;;4797504;30;19942;-78
2023/10/22 12:58:05;;;;;;;;;;;26.60;55.40;;;;;;4729697;30;20300;-78
2023/10/22 13:00:50;;;;;;;;;;;28.30;53.30;;;;;;4726334;30;19917;-77
2023/10/22 13:07:04;;;;;;;;;;;28.10;52.00;;;;;;4673851;30;19916;-77
2023/10/22 13:10:03;;;;;;;;;;;28.00;51.60;;;;;;4674296;30;19915;-77
2023/10/22 13:16:16;;;;;;;;;;;27.20;52.90;;;;;;4675297;30;19970;-79
2023/10/22 13:19:15;;;;;;;;;;;27.20;52.40;;;;;;4673955;30;19919;-77
2023/10/22 14:16:30;;;;;;;;;;;22.50;59.50;;;;;;4890096;29;19971;-79
2023/10/22 14:19:27;;;;;;;;;;;23.10;58.50;;;;;;4889111;29;19914;-79
2023/10/22 14:22:49;;;;;;;;;;;22.90;58.80;;;;;;4889439;29;19987;-79
2023/10/22 14:26:07;;;;;;;;;;;22.00;60.80;;;;;;4872771;29;19930;-75
2023/10/22 14:29:21;;;;;;;;;;;22.00;60.50;;;;;;4870766;29;19940;-79
2023/10/22 14:35:25;;;;;;;;;;;21.40;61.10;;;;;;4870554;29;19914;-78
2023/10/22 14:48:46;;;;;;;;;;;20.50;63.40;;;;;;4888624;29;20096;-77
2023/10/22 14:51:21;;;;;;;;;;;20.10;64.20;;;;;;4872268;29;20248;-77
2023/10/22 15:01:11;;;;;;;;;;;20.20;65.00;;;;;;4831415;29;20170;-78
2023/10/22 15:21:59;;;;;;;;;;;19.70;65.30;;;;;;4763594;30;20222;-78
2023/10/22 15:59:58;;;;;;;;;;;17.90;72.00;;;;;;4734948;30;20191;-79
2023/10/22 16:09:28;;;;;;;;;;;17.30;76.20;;;;;;4816503;29;19981;-79
2023/10/22 16:12:36;;;;;;;;;;;;;;;;;;;;;
2023/10/22 16:15:19;;;;;;;;;;;16.80;76.60;;;;;;4816152;29;19937;-80
2023/10/22 16:17:46;;;;;;;;;;;16.60;77.20;;;;;;4815547;29;19909;-80
2023/10/22 16:23:48;;;;;;;;;;;16.20;78.40;;;;;;4801114;29;20195;-80
2023/10/22 16:26:17;;;;;;;;;;;15.80;79.80;;;;;;4796144;30;19910;-79
2023/10/22 16:29:26;;;;;;;;;;;15.60;81.10;;;;;;4744671;30;19977;-79
2023/10/22 16:32:20;;;;;;;;;;;15.40;82.10;;;;;;4798172;30;19984;-79
2023/10/22 16:34:49;;;;;;;;;;;15.10;83.60;;;;;;4767326;30;19914;-78
2023/10/22 16:37:14;;;;;;;;;;;15.00;83.80;;;;;;4853146;29;19979;-78
2023/10/22 16:39:46;;;;;;;;;;;14.90;84.60;;;;;;4837956;29;19908;-78
2023/10/22 16:42:46;;;;;;;;;;;14.70;85.10;;;;;;4868032;29;19981;-78
2023/10/22 16:45:15;;;;;;;;;;;14.60;86.00;;;;;;4854946;29;19949;-80
2023/10/22 16:47:40;;;;;;;;;;;14.50;86.20;;;;;;4853579;29;19975;-79
2023/10/22 16:50:12;;;;;;;;;;;14.50;86.60;;;;;;4853805;29;20191;-80
2023/10/22 16:52:38;;;;;;;;;;;14.40;87.30;;;;;;4854038;29;19905;-80
2023/10/22 16:55:40;;;;;;;;;;;14.40;86.80;;;;;;4823332;29;19908;-79
2023/10/22 16:58:11;;;;;;;;;;;14.30;88.10;;;;;;4853189;29;19912;-78
2023/10/22 17:00:46;;;;;;;;;;;14.20;87.60;;;;;;4849038;29;19908;-78
2023/10/22 17:06:21;;;;;;;;;;;14.10;89.00;;;;;;4891293;29;19915;-79
2023/10/22 17:08:58;;;;;;;;;;;14.10;89.50;;;;;;4874565;29;19908;-78
2023/10/22 17:11:30;;;;;;;;;;;14.00;89.50;;;;;;4875355;29;19974;-81
2023/10/22 17:14:17;;;;;;;;;;;14.00;89.50;;;;;;4863886;29;19915;-79
2023/10/22 17:17:10;;;;;;;;;;;13.90;90.10;;;;;;4821997;29;19909;-81
2023/10/22 17:19:36;;;;;;;;;;;13.80;90.00;;;;;;4835007;29;19908;-77
2023/10/22 17:22:02;;;;;;;;;;;13.80;90.20;;;;;;4818644;29;19952;-79
2023/10/22 17:28:55;;;;;;;;;;;13.70;90.20;;;;;;4798489;29;19935;-79
2023/10/22 17:31:22;;;;;;;;;;;13.60;90.30;;;;;;4812261;29;20004;-78
2023/10/22 17:37:23;;;;;;;;;;;13.60;90.60;;;;;;4813767;29;19939;-81
2023/10/22 17:44:07;;;;;;;;;;;13.40;91.10;;;;;;4797334;30;19920;-78
2023/10/22 17:46:36;;;;;;;;;;;13.30;91.30;;;;;;4792328;30;19909;-79
2023/10/22 17:49:05;;;;;;;;;;;13.20;91.50;;;;;;4797677;29;19924;-78
2023/10/22 17:51:31;;;;;;;;;;;13.10;91.80;;;;;;4790570;29;19905;-78
2023/10/22 17:53:59;;;;;;;;;;;13.10;92.10;;;;;;4814329;29;19916;-79
2023/10/22 17:56:24;;;;;;;;;;;13.00;92.00;;;;;;4799569;29;19910;-79
2023/10/22 17:58:51;;;;;;;;;;;12.90;92.10;;;;;;4803212;29;19905;-77
2023/10/22 18:01:45;;;;;;;;;;;12.80;92.40;;;;;;4799217;29;19917;-78
2023/10/22 18:04:11;;;;;;;;;;;12.70;92.70;;;;;;4802610;29;19909;-79
2023/10/22 18:10:53;;;;;;;;;;;12.50;93.00;;;;;;4795233;29;19950;-77
2023/10/22 18:13:43;;;;;;;;;;;12.40;94.10;;;;;;4767715;29;19912;-79
2023/10/22 18:16:09;;;;;;;;;;;12.40;94.10;;;;;;4872186;29;19915;-77
2023/10/22 18:22:08;;;;;;;;;;;12.20;94.60;;;;;;4872916;29;19931;-79
2023/10/22 18:28:34;;;;;;;;;;;12.00;95.20;;;;;;4852361;29;19915;-77
2023/10/22 18:31:04;;;;;;;;;;;11.90;95.60;;;;;;4836755;29;19996;-78
2023/10/22 18:33:45;;;;;;;;;;;11.90;95.80;;;;;;4837883;29;19909;-78
2023/10/22 18:36:11;;;;;;;;;;;11.90;96.00;;;;;;4851821;29;20112;-80
2023/10/22 18:39:11;;;;;;;;;;;11.90;96.20;;;;;;4853446;29;19908;-78
2023/10/22 18:41:58;;;;;;;;;;;11.90;96.30;;;;;;4819362;29;19945;-79
2023/10/22 18:44:52;;;;;;;;;;;11.80;96.50;;;;;;4802770;29;19927;-79
2023/10/22 18:47:23;;;;;;;;;;;11.80;96.70;;;;;;4833008;29;20038;-78
2023/10/22 18:49:49;;;;;;;;;;;11.80;96.80;;;;;;4831243;29;19912;-78
2023/10/22 18:52:21;;;;;;;;;;;11.80;96.90;;;;;;4835760;29;20148;-79
2023/10/22 18:54:48;;;;;;;;;;;11.90;97.00;;;;;;4830674;29;19909;-78
2023/10/22 19:00:56;;;;;;;;;;;11.90;97.20;;;;;;4872702;29;19997;-79
2023/10/22 19:09:25;;;;;;;;;;;11.80;97.60;;;;;;4889925;29;19908;-78
2023/10/22 19:11:57;;;;;;;;;;;11.70;97.80;;;;;;4889803;29;20179;-78
2023/10/22 19:14:51;;;;;;;;;;;11.70;98.00;;;;;;4876361;29;19914;-78
2023/10/22 19:17:26;;;;;;;;;;;11.60;98.30;;;;;;4885597;29;20139;-77
2023/10/22 19:20:07;;;;;;;;;;;11.60;98.40;;;;;;4850048;29;19908;-79
2023/10/22 19:22:38;;;;;;;;;;;11.60;98.60;;;;;;4850957;29;19959;-79
2023/10/22 19:29:02;;;;;;;;;;;11.60;98.70;;;;;;4846091;29;19915;-78
2023/10/22 19:45:49;;;;;;;;;;;11.50;99.60;;;;;;4870805;29;19915;-79
2023/10/22 19:48:29;;;;;;;;;;;11.50;99.60;;;;;;4872058;29;20190;-78
2023/10/22 19:51:07;;;;;;;;;;;11.50;99.80;;;;;;4857812;29;19915;-79
2023/10/22 19:53:35;;;;;;;;;;;11.40;99.80;;;;;;4857270;29;19995;-80
2023/10/22 19:56:29;;;;;;;;;;;11.40;99.90;;;;;;4835977;29;19916;-81
2023/10/22 19:59:02;;;;;;;;;;;11.30;99.90;;;;;;4835038;29;19920;-77
2023/10/22 20:01:27;;;;;;;;;;;11.30;99.90;;;;;;4835727;29;19983;-77
2023/10/22 20:03:56;;;;;;;;;;;11.30;99.90;;;;;;4832179;29;19905;-79
2023/10/22 20:06:43;;;;;;;;;;;11.30;99.90;;;;;;4829508;29;20210;-77
2023/10/22 20:12:05;;;;;;;;;;;11.30;99.90;;;;;;4833889;29;19925;-78
2023/10/22 20:14:56;;;;;;;;;;;11.30;99.90;;;;;;4827954;29;20296;-78
2023/10/22 20:17:24;;;;;;;;;;;11.30;99.90;;;;;;4834645;29;19913;-78
2023/10/22 20:19:57;;;;;;;;;;;11.20;99.90;;;;;;4834703;29;19949;-78
2023/10/22 20:22:25;;;;;;;;;;;11.20;99.90;;;;;;4834694;29;19981;-77
2023/10/22 20:24:57;;;;;;;;;;;11.10;99.90;;;;;;4833832;29;19913;-78
2023/10/22 20:27:36;;;;;;;;;;;11.10;99.90;;;;;;4859112;29;19908;-78
2023/10/22 20:30:26;;;;;;;;;;;11.10;99.90;;;;;;4856453;29;20097;-77
2023/10/22 20:32:59;;;;;;;;;;;11.10;99.90;;;;;;4856029;29;19943;-79
2023/10/22 20:35:33;;;;;;;;;;;11.20;99.90;;;;;;4873657;29;19947;-78
2023/10/22 20:38:27;;;;;;;;;;;11.10;99.90;;;;;;4855779;29;19908;-77
2023/10/22 20:41:02;;;;;;;;;;;11.10;99.90;;;;;;4840062;29;20255;-78
2023/10/22 20:43:42;;;;;;;;;;;11.10;99.90;;;;;;4866700;29;19916;-80
2023/10/22 20:46:08;;;;;;;;;;;11.10;99.90;;;;;;4874146;29;20241;-77
2023/10/22 20:48:35;;;;;;;;;;;11.10;99.90;;;;;;4890467;29;19963;-78
2023/10/22 20:51:07;;;;;;;;;;;11.10;99.90;;;;;;4890724;29;19908;-77
2023/10/22 20:53:36;;;;;;;;;;;11.10;99.90;;;;;;4891858;29;20228;-78
2023/10/22 20:59:11;;;;;;;;;;;11.10;99.90;;;;;;4890032;29;19927;-78
2023/10/22 21:01:39;;;;;;;;;;;11.00;99.90;;;;;;4858422;29;19919;-78
2023/10/22 21:04:12;;;;;;;;;;;11.00;99.90;;;;;;4873735;29;19943;-77
2023/10/22 21:06:44;;;;;;;;;;;10.90;99.90;;;;;;4874060;29;20189;-78
2023/10/22 21:09:10;;;;;;;;;;;10.90;99.90;;;;;;4889672;29;19923;-77
2023/10/22 21:11:41;;;;;;;;;;;10.90;99.90;;;;;;4874378;29;19974;-79
2023/10/22 21:14:13;;;;;;;;;;;10.90;99.90;;;;;;4874300;29;19978;-78
2023/10/22 21:16:45;;;;;;;;;;;10.80;99.90;;;;;;4874079;29;19912;-78
2023/10/22 21:19:11;;;;;;;;;;;10.80;99.90;;;;;;4873132;29;19924;-78
2023/10/22 21:21:56;;;;;;;;;;;10.80;99.90;;;;;;4889534;29;19986;-78
2023/10/22 21:24:37;;;;;;;;;;;10.80;99.90;;;;;;4873828;29;19947;-78
2023/10/22 21:27:02;;;;;;;;;;;10.70;99.90;;;;;;4889911;29;19956;-77
2023/10/22 21:29:28;;;;;;;;;;;10.70;99.90;;;;;;4873324;29;19907;-79
2023/10/22 21:31:57;;;;;;;;;;;10.80;99.90;;;;;;4874224;29;19975;-80
2023/10/22 21:34:23;;;;;;;;;;;10.80;99.90;;;;;;4890133;29;19911;-78
2023/10/22 21:37:19;;;;;;;;;;;10.80;99.90;;;;;;4873273;29;20099;-79
2023/10/22 21:39:48;;;;;;;;;;;10.80;99.90;;;;;;4870596;29;19915;-78
2023/10/22 21:42:13;;;;;;;;;;;10.70;99.90;;;;;;4870836;29;19916;-78
2023/10/22 21:44:45;;;;;;;;;;;10.70;99.90;;;;;;4872214;29;19974;-79
2023/10/22 21:47:11;;;;;;;;;;;10.60;99.90;;;;;;4870656;29;19982;-78
2023/10/22 21:49:40;;;;;;;;;;;10.60;99.90;;;;;;4855285;29;19955;-79
2023/10/22 21:52:12;;;;;;;;;;;10.50;99.90;;;;;;4884392;29;19915;-78
2023/10/22 21:57:24;;;;;;;;;;;10.40;99.90;;;;;;4869019;29;19917;-78
2023/10/22 21:59:49;;;;;;;;;;;10.40;99.90;;;;;;4869755;29;19907;-78
2023/10/22 22:02:15;;;;;;;;;;;10.30;99.90;;;;;;4888394;29;20404;-77
2023/10/22 22:04:49;;;;;;;;;;;10.30;99.90;;;;;;4889559;29;19976;-78
2023/10/22 22:07:15;;;;;;;;;;;10.30;99.90;;;;;;4888421;29;20190;-78
2023/10/22 22:09:59;;;;;;;;;;;10.20;99.90;;;;;;4889257;29;19978;-79
2023/10/22 22:12:24;;;;;;;;;;;10.20;99.90;;;;;;4889205;29;19908;-79
2023/10/22 22:15:01;;;;;;;;;;;10.20;99.90;;;;;;4888805;29;19914;-78
2023/10/22 22:17:27;;;;;;;;;;;10.10;99.90;;;;;;4889333;29;19915;-78
2023/10/22 22:20:05;;;;;;;;;;;10.10;99.90;;;;;;4872428;29;19914;-78
2023/10/22 22:22:31;;;;;;;;;;;10.10;99.90;;;;;;4889051;29;19912;-78
2023/10/22 22:24:59;;;;;;;;;;;10.10;99.90;;;;;;4872060;29;19914;-80
2023/10/22 22:27:34;;;;;;;;;;;10.00;99.90;;;;;;4889265;29;19984;-78
2023/10/22 22:30:26;;;;;;;;;;;9.90;99.90;;;;;;4888484;29;19994;-78
2023/10/22 22:32:51;;;;;;;;;;;9.90;99.90;;;;;;4872353;29;19999;-78
2023/10/22 22:35:17;;;;;;;;;;;9.90;99.90;;;;;;4872106;29;20186;-78
2023/10/22 22:41:07;;;;;;;;;;;9.70;99.90;;;;;;4869876;29;20211;-78
2023/10/22 22:46:50;;;;;;;;;;;9.60;99.90;;;;;;4832307;29;19908;-78
2023/10/22 22:49:23;;;;;;;;;;;9.50;99.90;;;;;;4831319;29;19913;-78
2023/10/22 22:52:03;;;;;;;;;;;9.50;99.90;;;;;;4816913;29;19905;-78
2023/10/22 22:54:32;;;;;;;;;;;9.40;99.90;;;;;;4832177;29;19984;-78
2023/10/22 22:57:06;;;;;;;;;;;9.30;99.90;;;;;;4816638;29;19954;-78
2023/10/22 23:03:08;;;;;;;;;;;;;;;;;;;;;
2023/10/22 23:05:59;;;;;;;;;;;9.20;99.90;;;;;;4778882;29;19916;-78
2023/10/22 23:08:25;;;;;;;;;;;9.00;99.90;;;;;;4832269;29;19909;-78
2023/10/22 23:10:50;;;;;;;;;;;9.00;99.90;;;;;;4831716;29;20103;-78
2023/10/22 23:13:16;;;;;;;;;;;9.00;99.90;;;;;;4816208;29;19949;-77
2023/10/22 23:15:42;;;;;;;;;;;8.90;99.90;;;;;;4816210;29;19948;-78
2023/10/22 23:18:08;;;;;;;;;;;8.90;99.90;;;;;;4816058;29;19934;-76
2023/10/22 23:20:33;;;;;;;;;;;8.90;99.90;;;;;;4816176;29;19905;-78
2023/10/22 23:23:05;;;;;;;;;;;8.90;99.90;;;;;;4839208;29;20102;-79
2023/10/22 23:25:31;;;;;;;;;;;8.80;99.90;;;;;;4872822;29;19908;-80
2023/10/22 23:28:11;;;;;;;;;;;8.70;99.90;;;;;;4874020;29;19911;-80
2023/10/22 23:30:41;;;;;;;;;;;8.70;99.90;;;;;;4872244;29;19951;-78
2023/10/22 23:33:19;;;;;;;;;;;8.70;99.90;;;;;;4872547;29;19908;-79
2023/10/22 23:35:48;;;;;;;;;;;8.60;99.90;;;;;;4868174;29;19908;-79
2023/10/22 23:42:03;;;;;;;;;;;8.50;99.90;;;;;;4873352;29;19941;-78
2023/10/22 23:44:29;;;;;;;;;;;8.40;99.90;;;;;;4873371;29;19919;-78
2023/10/22 23:47:01;;;;;;;;;;;8.40;99.90;;;;;;4873552;29;19908;-79
2023/10/22 23:49:27;;;;;;;;;;;8.30;99.90;;;;;;4873194;29;20189;-79
2023/10/22 23:51:52;;;;;;;;;;;8.30;99.90;;;;;;4872830;29;19987;-79
2023/10/22 23:54:27;;;;;;;;;;;8.30;99.90;;;;;;4872508;29;20137;-79
2023/10/22 23:56:56;;;;;;;;;;;8.20;99.90;;;;;;4857262;29;19908;-79
2023/10/22 23:59:21;;;;;;;;;;;8.20;99.90;;;;;;4856040;29;19908;-78
